Lonetree, Indiana
Current Conditions -  °F | °C
As of 5:53 PM on Tuesday 25 Nov 2014 (Local Time) from KHUF Reporting Station
Overcast Overcast  
Wind Chill: 23°   Ceiling: 1800
Heat Index: 29°   Visibility: 10mi
Dew Point: 22°   Wind: 6mph
Humidity: 75%   Direction: 350°N
Pressure: 30.18"   Gusts: NA
Location:  39.2016°N, 87.1874°W
Report Text: KHUF 252253Z 35005KT 10SM OVC018 M02/M06 A3018 RMK AO2 SLP226 T10171056
Loading
Personal Weather Stations






























Interactive Weather Map New forecast layout! Learn more

10-Day Weather Forecast

Advertisements
Track Severe Weather on mobile